Time;durP1;ratioP1;P1;durP2;ratioP2;P2;SDS_P1;SDS_P2;PMS_P1;PMS_P2;Temp;Humidity;BMP_temperature;BMP_pressure;BME280_temperature;BME280_humidity;BME280_pressure;Samples;Min_cycle;Max_cycle;Signal;HPM_P1;HPM_P2
2023/01/25 00:00:48;;;;;;;33.67;21.65;;;;;;;;;;5091099;28;20043;-79
2023/01/25 00:03:14;;;;;;;28.88;19.38;;;;;;;;;;5090119;28;20052;-80
2023/01/25 00:05:40;;;;;;;34.08;22.35;;;;;;;;;;5094490;28;20513;-79
2023/01/25 00:08:06;;;;;;;29.60;21.52;;;;;;;;;;5094776;28;20476;-80
2023/01/25 00:10:32;;;;;;;35.42;23.80;;;;;;;;;;5092703;28;20043;-80
2023/01/25 00:12:58;;;;;;;32.08;22.90;;;;;;;;;;5080652;28;20040;-79
2023/01/25 00:15:24;;;;;;;33.30;22.90;;;;;;;;;;5085976;28;20024;-79
2023/01/25 00:17:50;;;;;;;32.70;24.13;;;;;;;;;;5092813;28;20032;-81
2023/01/25 00:20:17;;;;;;;33.92;24.45;;;;;;;;;;5093939;28;20150;-78
2023/01/25 00:22:43;;;;;;;39.15;24.88;;;;;;;;;;5095500;28;20039;-78
2023/01/25 00:25:09;;;;;;;39.00;25.42;;;;;;;;;;5086516;28;20045;-79
2023/01/25 00:27:35;;;;;;;37.45;25.65;;;;;;;;;;5091365;28;20023;-81
2023/01/25 00:30:01;;;;;;;37.38;24.77;;;;;;;;;;5089459;28;20065;-79
2023/01/25 00:32:33;;;;;;;38.40;25.35;;;;;;;;;;5088848;28;20183;-79
2023/01/25 00:34:59;;;;;;;40.03;26.15;;;;;;;;;;5086202;28;20047;-78
2023/01/25 00:37:34;;;;;;;41.25;25.20;;;;;;;;;;5091338;28;20093;-78
2023/01/25 00:40:00;;;;;;;39.42;25.58;;;;;;;;;;5091474;28;20027;-78
2023/01/25 00:42:26;;;;;;;37.08;25.50;;;;;;;;;;5080732;28;20043;-79
2023/01/25 00:44:52;;;;;;;36.65;24.60;;;;;;;;;;5083032;28;20040;-79
2023/01/25 00:47:18;;;;;;;39.97;25.90;;;;;;;;;;5069238;28;20024;-79
2023/01/25 00:49:45;;;;;;;41.15;26.90;;;;;;;;;;5090519;28;20033;-79
2023/01/25 00:52:12;;;;;;;37.03;25.48;;;;;;;;;;5089577;28;20020;-78
2023/01/25 00:54:38;;;;;;;40.15;26.45;;;;;;;;;;5081704;28;20024;-78
2023/01/25 00:57:05;;;;;;;43.10;27.30;;;;;;;;;;5093868;28;20082;-79
2023/01/25 00:59:32;;;;;;;39.92;27.90;;;;;;;;;;5086264;28;20028;-78
2023/01/25 01:01:58;;;;;;;43.75;27.67;;;;;;;;;;5090393;28;20044;-80
2023/01/25 01:04:24;;;;;;;38.20;25.60;;;;;;;;;;5096907;28;20111;-79
2023/01/25 01:06:51;;;;;;;42.05;28.77;;;;;;;;;;5091907;28;20469;-80
2023/01/25 01:09:17;;;;;;;43.75;28.90;;;;;;;;;;5096294;28;20044;-79
2023/01/25 01:11:44;;;;;;;44.50;30.65;;;;;;;;;;5091996;28;20487;-78
2023/01/25 01:14:10;;;;;;;43.30;29.60;;;;;;;;;;5094542;28;20020;-79
2023/01/25 01:16:36;;;;;;;46.75;32.28;;;;;;;;;;5077790;28;20570;-78
2023/01/25 01:19:02;;;;;;;48.15;31.48;;;;;;;;;;5084571;28;20080;-82
2023/01/25 01:21:28;;;;;;;44.80;29.60;;;;;;;;;;5095776;28;20032;-80
2023/01/25 01:23:55;;;;;;;46.13;29.42;;;;;;;;;;5091564;28;20053;-78
2023/01/25 01:26:21;;;;;;;46.97;30.23;;;;;;;;;;5090249;28;20465;-77
2023/01/25 01:28:47;;;;;;;46.92;30.67;;;;;;;;;;5091171;28;20497;-78
2023/01/25 01:31:15;;;;;;;45.97;28.58;;;;;;;;;;5090528;28;20071;-78
2023/01/25 01:33:41;;;;;;;47.75;30.02;;;;;;;;;;5085691;28;20099;-77
2023/01/25 01:36:08;;;;;;;46.22;29.83;;;;;;;;;;5080092;28;20035;-79
2023/01/25 01:38:34;;;;;;;48.17;31.38;;;;;;;;;;5077304;28;20028;-77
2023/01/25 01:41:00;;;;;;;46.67;31.50;;;;;;;;;;5092400;28;20068;-81
2023/01/25 01:43:26;;;;;;;50.50;31.80;;;;;;;;;;5087868;28;20495;-77
2023/01/25 01:45:57;;;;;;;48.40;32.05;;;;;;;;;;5086929;28;20036;-78
2023/01/25 01:48:41;;;;;;;49.03;33.65;;;;;;;;;;5089295;28;20024;-77
2023/01/25 01:51:16;;;;;;;50.78;34.40;;;;;;;;;;5076525;28;20039;-78
2023/01/25 01:53:44;;;;;;;49.15;32.13;;;;;;;;;;5099944;28;20111;-78
2023/01/25 01:56:12;;;;;;;49.33;32.85;;;;;;;;;;5090279;28;20112;-79
2023/01/25 01:58:39;;;;;;;50.58;32.67;;;;;;;;;;5093742;28;20094;-78
2023/01/25 02:01:05;;;;;;;50.25;33.58;;;;;;;;;;5098796;28;20445;-78
2023/01/25 02:03:31;;;;;;;48.78;31.70;;;;;;;;;;5096179;28;20028;-78
2023/01/25 02:06:08;;;;;;;53.00;33.92;;;;;;;;;;5086269;28;20032;-78
2023/01/25 02:08:35;;;;;;;50.97;33.08;;;;;;;;;;5090795;28;20024;-81
2023/01/25 02:11:03;;;;;;;48.70;31.63;;;;;;;;;;5099742;28;20024;-79
2023/01/25 02:13:29;;;;;;;57.60;34.65;;;;;;;;;;5080939;28;20047;-81
2023/01/25 02:15:55;;;;;;;53.97;32.15;;;;;;;;;;5092546;28;20448;-77
2023/01/25 02:18:22;;;;;;;51.40;33.17;;;;;;;;;;5090448;28;20055;-77
2023/01/25 02:20:51;;;;;;;56.80;34.10;;;;;;;;;;5092749;28;20055;-79
2023/01/25 02:23:20;;;;;;;54.03;34.70;;;;;;;;;;5093979;28;20043;-80
2023/01/25 02:25:46;;;;;;;51.97;33.60;;;;;;;;;;5088698;28;20028;-81
2023/01/25 02:28:18;;;;;;;56.38;34.47;;;;;;;;;;5090000;28;22815;-78
2023/01/25 02:30:44;;;;;;;58.67;36.97;;;;;;;;;;5090798;28;20131;-81
2023/01/25 02:33:10;;;;;;;56.42;36.95;;;;;;;;;;5091518;28;20476;-78
2023/01/25 02:35:36;;;;;;;56.42;36.85;;;;;;;;;;5096410;28;20384;-77
2023/01/25 02:38:03;;;;;;;58.50;37.08;;;;;;;;;;5098645;28;20035;-77
2023/01/25 02:40:30;;;;;;;57.50;37.08;;;;;;;;;;5089532;28;20032;-78
2023/01/25 02:42:57;;;;;;;59.50;37.72;;;;;;;;;;5091602;28;20114;-80
2023/01/25 02:45:25;;;;;;;58.78;36.13;;;;;;;;;;5095435;28;20025;-78
2023/01/25 02:47:51;;;;;;;57.70;37.33;;;;;;;;;;5095401;28;20046;-78
2023/01/25 02:50:17;;;;;;;60.15;39.67;;;;;;;;;;5095070;28;20466;-78
2023/01/25 02:52:43;;;;;;;57.85;37.15;;;;;;;;;;5097595;28;20019;-80
2023/01/25 02:55:09;;;;;;;54.70;36.05;;;;;;;;;;5094632;28;20370;-77
2023/01/25 02:57:35;;;;;;;55.40;34.97;;;;;;;;;;5084120;28;20477;-78
2023/01/25 03:00:01;;;;;;;56.60;35.60;;;;;;;;;;5091070;28;20032;-79
2023/01/25 03:02:27;;;;;;;52.20;34.03;;;;;;;;;;5096945;28;20055;-78
2023/01/25 03:04:54;;;;;;;56.72;35.72;;;;;;;;;;5088314;28;20035;-79
2023/01/25 03:07:20;;;;;;;60.47;38.85;;;;;;;;;;5098397;28;20028;-79
2023/01/25 03:09:46;;;;;;;59.22;36.88;;;;;;;;;;5089630;28;20021;-81
2023/01/25 03:12:12;;;;;;;59.13;37.72;;;;;;;;;;5097127;28;20040;-78
2023/01/25 03:14:38;;;;;;;59.70;38.30;;;;;;;;;;5093223;28;20023;-78
2023/01/25 03:17:04;;;;;;;59.80;37.47;;;;;;;;;;5094197;28;20051;-78
2023/01/25 03:19:30;;;;;;;59.90;37.47;;;;;;;;;;5093623;28;20032;-78
2023/01/25 03:21:57;;;;;;;57.95;37.78;;;;;;;;;;5087981;28;20043;-78
2023/01/25 03:24:24;;;;;;;57.45;37.17;;;;;;;;;;5091315;28;20036;-79
2023/01/25 03:29:34;;;;;;;59.70;37.55;;;;;;;;;;5086938;28;20114;-79
2023/01/25 03:32:00;;;;;;;57.65;38.25;;;;;;;;;;5085527;28;20032;-79
2023/01/25 03:34:26;;;;;;;57.08;37.72;;;;;;;;;;5094718;28;20038;-78
2023/01/25 03:36:52;;;;;;;61.65;38.42;;;;;;;;;;5073312;28;20028;-78
2023/01/25 03:39:18;;;;;;;63.20;39.70;;;;;;;;;;5095983;28;20031;-78
2023/01/25 03:41:44;;;;;;;57.05;37.28;;;;;;;;;;5091484;28;20020;-79
2023/01/25 03:44:10;;;;;;;61.33;37.85;;;;;;;;;;5078694;28;20055;-79
2023/01/25 03:46:37;;;;;;;57.90;37.30;;;;;;;;;;5089464;28;20060;-78
2023/01/25 03:49:03;;;;;;;62.50;39.13;;;;;;;;;;5079129;28;20388;-78
2023/01/25 03:51:29;;;;;;;56.97;35.75;;;;;;;;;;5092726;28;20376;-78
2023/01/25 03:53:55;;;;;;;54.95;35.17;;;;;;;;;;5091882;28;20066;-81
2023/01/25 03:56:21;;;;;;;60.85;37.20;;;;;;;;;;5096649;28;20032;-78
2023/01/25 03:58:47;;;;;;;58.80;36.90;;;;;;;;;;5087609;28;20023;-80
2023/01/25 04:01:13;;;;;;;53.55;36.03;;;;;;;;;;5092077;28;20048;-78
2023/01/25 04:03:40;;;;;;;55.35;37.08;;;;;;;;;;5092167;28;20110;-77
2023/01/25 04:06:06;;;;;;;54.25;35.85;;;;;;;;;;5092699;28;20043;-80
2023/01/25 04:08:32;;;;;;;54.47;35.67;;;;;;;;;;5092419;28;20487;-79
2023/01/25 04:11:05;;;;;;;53.38;34.85;;;;;;;;;;5092223;28;20028;-77
2023/01/25 04:13:35;;;;;;;54.63;35.00;;;;;;;;;;5092871;28;20027;-78
2023/01/25 04:16:02;;;;;;;51.30;32.55;;;;;;;;;;5089748;28;20116;-77
2023/01/25 04:18:28;;;;;;;51.67;33.35;;;;;;;;;;5095132;28;20482;-77
2023/01/25 04:20:54;;;;;;;51.85;34.50;;;;;;;;;;5081596;28;20477;-77
2023/01/25 04:23:21;;;;;;;59.55;33.22;;;;;;;;;;5091778;28;20036;-77
2023/01/25 04:25:54;;;;;;;52.92;33.22;;;;;;;;;;5096165;28;20092;-77
2023/01/25 04:28:20;;;;;;;51.70;33.38;;;;;;;;;;5085166;28;20024;-78
2023/01/25 04:30:46;;;;;;;53.65;32.70;;;;;;;;;;5086405;28;20167;-78
2023/01/25 04:33:12;;;;;;;49.58;32.45;;;;;;;;;;5093919;28;20532;-78
2023/01/25 04:35:39;;;;;;;48.63;32.53;;;;;;;;;;5097314;28;20028;-79
2023/01/25 04:38:05;;;;;;;47.25;31.00;;;;;;;;;;5089990;28;20081;-77
2023/01/25 04:40:31;;;;;;;51.60;31.98;;;;;;;;;;5090262;28;20027;-77
2023/01/25 04:42:57;;;;;;;47.40;31.65;;;;;;;;;;5091038;28;20051;-78
2023/01/25 04:45:24;;;;;;;46.78;30.98;;;;;;;;;;5088377;28;20044;-77
2023/01/25 04:47:56;;;;;;;45.85;29.90;;;;;;;;;;5086478;28;20016;-78
2023/01/25 04:50:22;;;;;;;43.13;28.67;;;;;;;;;;5090358;28;20036;-78
2023/01/25 04:52:48;;;;;;;49.05;29.35;;;;;;;;;;5089685;28;20036;-80
2023/01/25 04:55:15;;;;;;;42.75;29.05;;;;;;;;;;5077556;28;20499;-77
2023/01/25 04:57:41;;;;;;;42.33;29.65;;;;;;;;;;5093386;28;20038;-78
2023/01/25 05:00:08;;;;;;;42.47;29.75;;;;;;;;;;5093161;28;20039;-78
2023/01/25 05:02:35;;;;;;;40.10;28.13;;;;;;;;;;5091123;28;20519;-80
2023/01/25 05:05:01;;;;;;;42.17;28.55;;;;;;;;;;5089408;28;20048;-79
2023/01/25 05:07:27;;;;;;;38.83;28.23;;;;;;;;;;5095632;28;20035;-79
2023/01/25 05:09:53;;;;;;;41.15;28.10;;;;;;;;;;5077783;28;20127;-78
2023/01/25 05:12:19;;;;;;;40.75;27.90;;;;;;;;;;5092016;28;20038;-82
2023/01/25 05:14:45;;;;;;;41.28;27.77;;;;;;;;;;5091501;28;20111;-80
2023/01/25 05:17:11;;;;;;;45.47;29.80;;;;;;;;;;5089000;28;20028;-78
2023/01/25 05:19:37;;;;;;;42.95;28.75;;;;;;;;;;5092064;28;20039;-78
2023/01/25 05:22:06;;;;;;;45.40;29.50;;;;;;;;;;5092409;28;20024;-80
2023/01/25 05:24:33;;;;;;;41.97;28.88;;;;;;;;;;5095107;28;20048;-78
2023/01/25 05:26:59;;;;;;;42.47;29.15;;;;;;;;;;5095351;28;20028;-77
2023/01/25 05:29:39;;;;;;;47.60;29.45;;;;;;;;;;5095114;28;20376;-77
2023/01/25 05:32:09;;;;;;;43.67;28.92;;;;;;;;;;5089265;28;20064;-78
2023/01/25 05:34:35;;;;;;;47.00;30.13;;;;;;;;;;5094584;28;20063;-77
2023/01/25 05:37:02;;;;;;;46.88;29.83;;;;;;;;;;5090731;28;20373;-79
2023/01/25 05:39:28;;;;;;;44.83;30.88;;;;;;;;;;5095531;28;20016;-78
2023/01/25 05:41:54;;;;;;;46.03;31.42;;;;;;;;;;5082955;28;20032;-78
2023/01/25 05:44:20;;;;;;;43.42;29.63;;;;;;;;;;5097655;28;20028;-79
2023/01/25 05:46:46;;;;;;;47.78;31.27;;;;;;;;;;5090204;28;20028;-81
2023/01/25 05:49:13;;;;;;;48.47;30.60;;;;;;;;;;5095284;28;20492;-78
2023/01/25 05:51:39;;;;;;;53.75;33.70;;;;;;;;;;5097438;28;20035;-78
2023/01/25 05:54:05;;;;;;;51.20;33.55;;;;;;;;;;5095136;28;20428;-80
2023/01/25 05:56:32;;;;;;;45.53;32.40;;;;;;;;;;5086867;28;20451;-79
2023/01/25 05:58:59;;;;;;;46.70;31.38;;;;;;;;;;5092680;28;20024;-79
2023/01/25 06:01:25;;;;;;;45.50;30.75;;;;;;;;;;5094586;28;20044;-79
2023/01/25 06:03:51;;;;;;;44.20;29.50;;;;;;;;;;5095050;28;20035;-78
2023/01/25 06:06:18;;;;;;;43.88;28.95;;;;;;;;;;5096753;28;20032;-78
2023/01/25 06:08:44;;;;;;;40.40;27.58;;;;;;;;;;5092835;28;20033;-82
2023/01/25 06:11:11;;;;;;;44.83;31.73;;;;;;;;;;5090117;28;20052;-79
2023/01/25 06:13:37;;;;;;;43.92;29.42;;;;;;;;;;5089097;28;20028;-78
2023/01/25 06:16:04;;;;;;;43.53;29.42;;;;;;;;;;5091417;28;20078;-79
2023/01/25 06:18:31;;;;;;;48.05;31.67;;;;;;;;;;5090700;28;20406;-79
2023/01/25 06:20:57;;;;;;;45.50;30.38;;;;;;;;;;5085182;28;20024;-79
2023/01/25 06:23:23;;;;;;;48.65;32.13;;;;;;;;;;5086825;28;20403;-80
2023/01/25 06:25:49;;;;;;;43.95;30.50;;;;;;;;;;5094826;28;20075;-79
2023/01/25 06:28:15;;;;;;;56.83;34.33;;;;;;;;;;5087937;28;20024;-75
2023/01/25 06:30:42;;;;;;;60.15;36.80;;;;;;;;;;5074527;28;20083;-75
2023/01/25 06:33:08;;;;;;;50.22;32.22;;;;;;;;;;5088009;28;20052;-81
2023/01/25 06:35:34;;;;;;;50.15;32.72;;;;;;;;;;5087035;28;20101;-77
2023/01/25 06:38:00;;;;;;;50.35;33.30;;;;;;;;;;5084764;28;20038;-78
2023/01/25 06:40:27;;;;;;;52.55;33.15;;;;;;;;;;5086757;28;20021;-77
2023/01/25 06:42:53;;;;;;;52.90;33.47;;;;;;;;;;5092395;28;20063;-80
2023/01/25 06:45:19;;;;;;;51.13;33.25;;;;;;;;;;5086419;28;20032;-77
2023/01/25 06:47:47;;;;;;;49.60;33.05;;;;;;;;;;5098792;28;20043;-77
2023/01/25 06:50:14;;;;;;;56.53;34.85;;;;;;;;;;5088191;28;20020;-77
2023/01/25 06:52:40;;;;;;;50.35;33.33;;;;;;;;;;5093363;28;20484;-77
2023/01/25 06:55:12;;;;;;;53.47;34.75;;;;;;;;;;5095964;28;20031;-79
2023/01/25 06:57:38;;;;;;;;;;;;;;;;;;5087889;28;20042;-80
2023/01/25 07:00:05;;;;;;;56.75;34.20;;;;;;;;;;5085233;28;19908;-79
2023/01/25 07:02:31;;;;;;;59.05;36.03;;;;;;;;;;5086499;28;20435;-79
2023/01/25 07:04:57;;;;;;;82.68;48.92;;;;;;;;;;5093954;28;20128;-78
2023/01/25 07:07:23;;;;;;;53.95;33.80;;;;;;;;;;5100782;28;20027;-82
2023/01/25 07:09:49;;;;;;;59.45;34.10;;;;;;;;;;5090495;28;20065;-78
2023/01/25 07:12:15;;;;;;;53.45;33.33;;;;;;;;;;5094388;28;20032;-77
2023/01/25 07:14:41;;;;;;;51.75;32.97;;;;;;;;;;5086179;28;20036;-78
2023/01/25 07:17:07;;;;;;;57.15;34.60;;;;;;;;;;5086471;28;20036;-78
2023/01/25 07:19:33;;;;;;;53.25;32.65;;;;;;;;;;5092836;28;20040;-76
2023/01/25 07:21:59;;;;;;;57.20;34.60;;;;;;;;;;5094992;28;20109;-77
2023/01/25 07:24:27;;;;;;;60.63;35.33;;;;;;;;;;5098698;28;20039;-77
2023/01/25 07:26:53;;;;;;;54.47;33.55;;;;;;;;;;5088376;28;22562;-78
2023/01/25 07:29:19;;;;;;;56.47;34.45;;;;;;;;;;5094247;28;20381;-77
2023/01/25 07:31:46;;;;;;;58.22;35.45;;;;;;;;;;5089790;28;20035;-77
2023/01/25 07:34:12;;;;;;;58.70;35.22;;;;;;;;;;5091867;28;20137;-77
2023/01/25 07:36:39;;;;;;;61.33;35.55;;;;;;;;;;5090206;28;20279;-78
2023/01/25 07:39:05;;;;;;;59.90;36.15;;;;;;;;;;5091868;28;20052;-77
2023/01/25 07:41:34;;;;;;;57.83;35.53;;;;;;;;;;5091191;28;20449;-78
2023/01/25 07:44:00;;;;;;;65.38;37.53;;;;;;;;;;5088787;28;20036;-78
2023/01/25 07:46:26;;;;;;;58.88;36.22;;;;;;;;;;5089328;28;20032;-77
2023/01/25 07:48:52;;;;;;;66.45;38.50;;;;;;;;;;5088561;28;20033;-76
2023/01/25 07:51:23;;;;;;;65.22;40.10;;;;;;;;;;5091608;28;20487;-76
2023/01/25 07:53:51;;;;;;;64.05;39.10;;;;;;;;;;5072155;28;20028;-78
2023/01/25 07:56:21;;;;;;;63.22;37.90;;;;;;;;;;5091069;28;20487;-78
2023/01/25 07:58:47;;;;;;;61.15;37.33;;;;;;;;;;5085567;28;20036;-76
2023/01/25 08:01:15;;;;;;;63.25;39.88;;;;;;;;;;5084473;28;20480;-78
2023/01/25 08:03:42;;;;;;;61.33;38.35;;;;;;;;;;5088892;28;20485;-79
2023/01/25 08:06:09;;;;;;;59.45;36.17;;;;;;;;;;5086421;28;20083;-79
2023/01/25 08:08:37;;;;;;;58.95;36.53;;;;;;;;;;5073299;28;20054;-80
2023/01/25 08:11:07;;;;;;;59.78;36.10;;;;;;;;;;5096931;28;20077;-79
2023/01/25 08:13:33;;;;;;;50.83;32.42;;;;;;;;;;5095072;28;20024;-78
2023/01/25 08:15:59;;;;;;;62.83;35.97;;;;;;;;;;5089042;28;20028;-80
2023/01/25 08:18:26;;;;;;;97.90;54.53;;;;;;;;;;5090368;28;20036;-76
2023/01/25 08:20:52;;;;;;;63.05;36.92;;;;;;;;;;5080922;28;20019;-81
2023/01/25 08:23:19;;;;;;;65.72;39.22;;;;;;;;;;5096033;28;20032;-79
2023/01/25 08:25:45;;;;;;;60.83;36.88;;;;;;;;;;5087103;28;20772;-81
2023/01/25 08:28:11;;;;;;;61.33;37.03;;;;;;;;;;5093219;28;20029;-79
2023/01/25 08:30:37;;;;;;;65.32;37.97;;;;;;;;;;5076381;28;20090;-80
2023/01/25 08:33:03;;;;;;;62.10;37.97;;;;;;;;;;5089399;28;20044;-80
2023/01/25 08:35:29;;;;;;;57.42;34.80;;;;;;;;;;5083730;28;20029;-78
2023/01/25 08:37:55;;;;;;;61.83;34.40;;;;;;;;;;5069391;28;20074;-80
2023/01/25 08:40:22;;;;;;;59.67;35.80;;;;;;;;;;5083564;28;20376;-79
2023/01/25 08:42:48;;;;;;;64.72;39.92;;;;;;;;;;5073347;28;20185;-78
2023/01/25 08:45:14;;;;;;;62.85;37.65;;;;;;;;;;5089218;28;20027;-78
2023/01/25 08:47:40;;;;;;;64.25;37.28;;;;;;;;;;5089556;28;20107;-78
2023/01/25 08:50:06;;;;;;;59.83;34.60;;;;;;;;;;5094772;28;20046;-79
2023/01/25 08:52:32;;;;;;;58.08;33.67;;;;;;;;;;5102126;28;20095;-79
2023/01/25 08:54:58;;;;;;;54.08;33.22;;;;;;;;;;5096285;28;20043;-79
2023/01/25 08:57:24;;;;;;;54.88;32.92;;;;;;;;;;5094424;28;20536;-80
2023/01/25 08:59:50;;;;;;;56.83;31.73;;;;;;;;;;5085148;28;21150;-79
2023/01/25 09:02:18;;;;;;;53.47;30.40;;;;;;;;;;5086799;28;20052;-79
2023/01/25 09:04:44;;;;;;;57.10;30.67;;;;;;;;;;5084628;28;20057;-79
2023/01/25 09:07:10;;;;;;;52.65;31.27;;;;;;;;;;5093164;28;20028;-80
2023/01/25 09:09:36;;;;;;;56.83;33.08;;;;;;;;;;5099433;28;20040;-80
2023/01/25 09:12:02;;;;;;;56.88;32.05;;;;;;;;;;5087963;28;20033;-77
2023/01/25 09:14:28;;;;;;;58.13;33.65;;;;;;;;;;5090867;28;20028;-79
2023/01/25 09:16:55;;;;;;;63.40;34.92;;;;;;;;;;5092659;28;20032;-80
2023/01/25 09:19:21;;;;;;;59.72;34.15;;;;;;;;;;5081789;28;20468;-79
2023/01/25 09:21:47;;;;;;;61.13;34.13;;;;;;;;;;5090667;28;20147;-78
2023/01/25 09:24:13;;;;;;;57.83;32.40;;;;;;;;;;5098194;28;20031;-77
2023/01/25 09:26:41;;;;;;;62.60;34.35;;;;;;;;;;5091151;28;20062;-78
2023/01/25 09:29:07;;;;;;;56.03;32.67;;;;;;;;;;5087264;28;20056;-77
2023/01/25 09:31:33;;;;;;;59.88;32.60;;;;;;;;;;5096409;28;20073;-77
2023/01/25 09:34:00;;;;;;;56.75;31.73;;;;;;;;;;5093661;28;20024;-78
2023/01/25 09:36:26;;;;;;;58.40;34.03;;;;;;;;;;5093162;28;20024;-78
2023/01/25 09:38:52;;;;;;;59.83;32.03;;;;;;;;;;5092742;28;20496;-78
2023/01/25 09:41:24;;;;;;;54.40;29.50;;;;;;;;;;5091144;28;20694;-78
2023/01/25 09:44:15;;;;;;;50.13;27.58;;;;;;;;;;5096936;28;20015;-78
2023/01/25 09:46:47;;;;;;;56.03;29.10;;;;;;;;;;5088039;28;20036;-79
2023/01/25 09:49:22;;;;;;;55.13;29.45;;;;;;;;;;5084757;28;20055;-77
2023/01/25 09:52:01;;;;;;;56.00;29.73;;;;;;;;;;5090977;28;20780;-79
2023/01/25 09:54:28;;;;;;;51.72;26.90;;;;;;;;;;5099478;28;20111;-78
2023/01/25 09:56:55;;;;;;;50.30;26.95;;;;;;;;;;5097098;28;20027;-78
2023/01/25 09:59:25;;;;;;;52.60;28.50;;;;;;;;;;5096024;28;20055;-79
2023/01/25 10:01:57;;;;;;;50.78;27.73;;;;;;;;;;5093297;28;21382;-78
2023/01/25 10:04:29;;;;;;;50.33;27.52;;;;;;;;;;5090800;28;20537;-79
2023/01/25 10:07:02;;;;;;;52.83;28.25;;;;;;;;;;5094586;28;20043;-80
2023/01/25 10:09:50;;;;;;;65.93;31.50;;;;;;;;;;5097513;28;20103;-79
2023/01/25 10:12:21;;;;;;;53.90;28.02;;;;;;;;;;5078189;28;20042;-77
2023/01/25 10:14:47;;;;;;;54.10;28.98;;;;;;;;;;5101604;28;20074;-80
2023/01/25 10:17:32;;;;;;;53.53;26.33;;;;;;;;;;5101820;28;20046;-79
2023/01/25 10:20:16;;;;;;;61.60;28.48;;;;;;;;;;5077778;28;20032;-80
2023/01/25 10:22:46;;;;;;;52.28;25.48;;;;;;;;;;5067858;28;20122;-79
2023/01/25 10:25:22;;;;;;;54.45;26.45;;;;;;;;;;5083994;28;20032;-79
2023/01/25 10:28:07;;;;;;;52.30;24.60;;;;;;;;;;5092153;28;20032;-79
2023/01/25 10:30:54;;;;;;;51.22;24.20;;;;;;;;;;5075931;28;20139;-81
2023/01/25 10:33:21;;;;;;;52.92;26.05;;;;;;;;;;5100554;28;20031;-79
2023/01/25 10:35:48;;;;;;;50.50;25.10;;;;;;;;;;5093582;28;20069;-79
2023/01/25 10:38:20;;;;;;;56.65;26.52;;;;;;;;;;5094504;28;20064;-79
2023/01/25 10:40:49;;;;;;;55.60;27.90;;;;;;;;;;5085734;28;20028;-79
2023/01/25 10:43:20;;;;;;;51.22;26.13;;;;;;;;;;5083723;28;20033;-78
2023/01/25 10:45:47;;;;;;;50.33;24.58;;;;;;;;;;5081383;28;20099;-81
2023/01/25 10:48:24;;;;;;;53.47;26.50;;;;;;;;;;5095510;28;20039;-77
2023/01/25 10:50:52;;;;;;;55.10;27.00;;;;;;;;;;5105350;28;20495;-79
2023/01/25 10:53:22;;;;;;;52.38;26.63;;;;;;;;;;5108602;28;20446;-80
2023/01/25 10:55:57;;;;;;;54.00;28.10;;;;;;;;;;5080415;28;20105;-79
2023/01/25 10:58:31;;;;;;;60.03;26.60;;;;;;;;;;5087111;28;20111;-79
2023/01/25 11:00:57;;;;;;;55.38;28.15;;;;;;;;;;5074121;28;20055;-79
2023/01/25 11:03:32;;;;;;;55.92;28.20;;;;;;;;;;5091244;28;20097;-81
2023/01/25 11:05:58;;;;;;;57.85;27.23;;;;;;;;;;5085760;28;20043;-82
2023/01/25 11:08:30;;;;;;;60.83;30.80;;;;;;;;;;5104184;28;20040;-82
2023/01/25 11:10:57;;;;;;;56.92;29.05;;;;;;;;;;5097925;28;20366;-82
2023/01/25 11:13:32;;;;;;;68.40;31.73;;;;;;;;;;5092685;28;20412;-82
2023/01/25 11:16:03;;;;;;;69.47;32.45;;;;;;;;;;5091299;28;20024;-81
2023/01/25 11:18:32;;;;;;;64.90;30.85;;;;;;;;;;5089923;28;20061;-77
2023/01/25 11:21:14;;;;;;;69.93;32.33;;;;;;;;;;5089875;28;20028;-78
2023/01/25 11:23:40;;;;;;;64.47;31.38;;;;;;;;;;5080585;28;20040;-77
2023/01/25 11:26:12;;;;;;;73.70;32.35;;;;;;;;;;5091718;28;20039;-78
2023/01/25 11:28:38;;;;;;;74.20;32.05;;;;;;;;;;5087229;28;20031;-78
2023/01/25 11:31:05;;;;;;;69.85;31.23;;;;;;;;;;5092676;28;20059;-78
2023/01/25 11:33:31;;;;;;;77.68;34.45;;;;;;;;;;5092200;28;20027;-79
2023/01/25 11:35:57;;;;;;;69.05;33.40;;;;;;;;;;5092084;28;20043;-79
2023/01/25 11:38:23;;;;;;;69.18;31.08;;;;;;;;;;5081043;28;20028;-77
2023/01/25 11:40:57;;;;;;;69.65;32.10;;;;;;;;;;5088048;28;20028;-80
2023/01/25 11:43:32;;;;;;;79.95;33.40;;;;;;;;;;5086516;28;20396;-78
2023/01/25 11:46:13;;;;;;;73.05;33.03;;;;;;;;;;5103462;28;20031;-77
2023/01/25 11:48:45;;;;;;;74.88;31.77;;;;;;;;;;5093351;28;20055;-78
2023/01/25 11:51:23;;;;;;;71.57;31.77;;;;;;;;;;5096670;28;20025;-80
2023/01/25 11:54:05;;;;;;;70.63;32.20;;;;;;;;;;5074028;28;20027;-80
2023/01/25 11:56:45;;;;;;;68.75;31.00;;;;;;;;;;5087284;28;20016;-80
2023/01/25 11:59:26;;;;;;;77.63;32.92;;;;;;;;;;5074973;28;20028;-79
2023/01/25 12:02:01;;;;;;;71.90;31.65;;;;;;;;;;5079536;28;20529;-80
2023/01/25 12:04:30;;;;;;;75.07;33.70;;;;;;;;;;5095504;28;20034;-81
2023/01/25 12:06:57;;;;;;;77.07;34.45;;;;;;;;;;5092428;28;20088;-80
2023/01/25 12:09:29;;;;;;;77.95;36.35;;;;;;;;;;5093989;28;20354;-80
2023/01/25 12:12:01;;;;;;;73.97;33.10;;;;;;;;;;5087366;28;20443;-79
2023/01/25 12:14:51;;;;;;;78.43;33.05;;;;;;;;;;5089990;28;20020;-78
2023/01/25 12:17:20;;;;;;;69.40;29.85;;;;;;;;;;5095236;28;20043;-78
2023/01/25 12:20:00;;;;;;;72.97;32.83;;;;;;;;;;5104302;28;20016;-79
2023/01/25 12:22:45;;;;;;;64.85;29.17;;;;;;;;;;5092514;28;20473;-79
2023/01/25 12:25:14;;;;;;;71.75;30.85;;;;;;;;;;5087349;28;20043;-79
2023/01/25 12:27:40;;;;;;;75.15;32.05;;;;;;;;;;5089771;28;20042;-79
2023/01/25 12:30:31;;;;;;;76.10;32.80;;;;;;;;;;5089901;28;20028;-79
2023/01/25 12:32:59;;;;;;;73.20;31.40;;;;;;;;;;5087619;28;20097;-79
2023/01/25 12:35:44;;;;;;;78.43;34.97;;;;;;;;;;5091023;28;20222;-80
2023/01/25 12:38:14;;;;;;;82.97;32.47;;;;;;;;;;5096847;28;20039;-79
2023/01/25 12:40:56;;;;;;;70.68;31.63;;;;;;;;;;5095443;28;20031;-78
2023/01/25 12:43:26;;;;;;;77.85;33.15;;;;;;;;;;5081954;28;20093;-79
2023/01/25 12:45:53;;;;;;;67.80;31.02;;;;;;;;;;5089243;28;20028;-78
2023/01/25 12:48:22;;;;;;;73.18;31.17;;;;;;;;;;5097189;28;20486;-77
2023/01/25 12:50:55;;;;;;;76.85;32.33;;;;;;;;;;5111695;28;20023;-78
2023/01/25 12:53:25;;;;;;;74.50;32.58;;;;;;;;;;5086291;28;20396;-78
2023/01/25 12:55:52;;;;;;;73.72;32.95;;;;;;;;;;5081483;28;20064;-78
2023/01/25 12:58:28;;;;;;;71.20;31.85;;;;;;;;;;5095424;28;20507;-79
2023/01/25 13:01:13;;;;;;;75.82;31.10;;;;;;;;;;5096987;28;20660;-79
2023/01/25 13:03:59;;;;;;;80.10;33.33;;;;;;;;;;5094826;28;20032;-79
2023/01/25 13:06:32;;;;;;;71.57;31.20;;;;;;;;;;5091918;28;20047;-79
2023/01/25 13:09:02;;;;;;;67.07;30.98;;;;;;;;;;5095020;28;20034;-79
2023/01/25 13:11:33;;;;;;;65.05;29.80;;;;;;;;;;5099225;28;20541;-78
2023/01/25 13:14:17;;;;;;;73.15;33.05;;;;;;;;;;5099689;28;20443;-78
2023/01/25 13:16:50;;;;;;;68.00;30.55;;;;;;;;;;5094739;28;20020;-79
2023/01/25 13:19:21;;;;;;;71.13;32.58;;;;;;;;;;5092530;28;20454;-79
2023/01/25 13:21:48;;;;;;;70.57;31.23;;;;;;;;;;5096094;28;20562;-79
2023/01/25 13:24:14;;;;;;;74.25;31.98;;;;;;;;;;5095364;28;20020;-78
2023/01/25 13:26:52;;;;;;;73.35;33.03;;;;;;;;;;5094090;28;20162;-77
2023/01/25 13:29:45;;;;;;;72.93;33.95;;;;;;;;;;5091550;28;20035;-78
2023/01/25 13:32:11;;;;;;;;;;;;;;;;;;5075886;28;20044;-77
2023/01/25 13:34:41;;;;;;;74.47;34.30;;;;;;;;;;5093040;28;20383;-77
2023/01/25 13:37:16;;;;;;;69.03;30.60;;;;;;;;;;5094204;28;20020;-77
2023/01/25 13:39:49;;;;;;;77.32;32.88;;;;;;;;;;5081648;28;20032;-77
2023/01/25 13:42:18;;;;;;;73.20;32.03;;;;;;;;;;5077906;28;20047;-77
2023/01/25 13:44:45;;;;;;;76.97;33.42;;;;;;;;;;5080090;28;20019;-77
2023/01/25 13:47:12;;;;;;;74.18;33.97;;;;;;;;;;5101271;28;20472;-77
2023/01/25 13:49:49;;;;;;;65.70;31.30;;;;;;;;;;5095073;28;20032;-78
2023/01/25 13:52:16;;;;;;;74.53;33.28;;;;;;;;;;5092414;28;20027;-77
2023/01/25 13:54:46;;;;;;;75.50;35.20;;;;;;;;;;5098844;28;20480;-77
2023/01/25 13:57:14;;;;;;;75.13;33.60;;;;;;;;;;5101738;28;20459;-78
2023/01/25 13:59:40;;;;;;;75.07;33.97;;;;;;;;;;5103744;28;20035;-78
2023/01/25 14:02:18;;;;;;;75.88;33.67;;;;;;;;;;5097845;28;20074;-79
2023/01/25 14:04:46;;;;;;;73.13;33.50;;;;;;;;;;5100997;28;20050;-79
2023/01/25 14:07:15;;;;;;;74.65;35.15;;;;;;;;;;5092691;28;20027;-79
2023/01/25 14:09:42;;;;;;;73.28;32.55;;;;;;;;;;5080737;28;20106;-79
2023/01/25 14:12:10;;;;;;;71.45;34.17;;;;;;;;;;5095030;28;20118;-80
2023/01/25 14:14:36;;;;;;;67.38;32.78;;;;;;;;;;5101080;28;20056;-79
2023/01/25 14:17:02;;;;;;;81.43;37.13;;;;;;;;;;5097064;28;20470;-78
2023/01/25 14:19:29;;;;;;;74.82;34.15;;;;;;;;;;5100794;28;20055;-78
2023/01/25 14:22:11;;;;;;;74.32;34.60;;;;;;;;;;5085754;28;20441;-79
2023/01/25 14:24:37;;;;;;;74.05;35.78;;;;;;;;;;5091678;28;20024;-79
2023/01/25 14:27:03;;;;;;;71.75;35.08;;;;;;;;;;5079279;28;20081;-78
2023/01/25 14:29:32;;;;;;;69.75;33.28;;;;;;;;;;5098847;28;20077;-78